createdAt,value
2019-03-22T00:02:37.257Z,86.55
2019-03-22T00:06:40.799Z,86.75
2019-03-22T00:10:46.870Z,82.33
2019-03-22T00:14:50.672Z,85.28
2019-03-22T00:18:54.238Z,90.83
2019-03-22T00:22:58.710Z,83.42
2019-03-22T00:27:02.628Z,88.20
2019-03-22T00:31:06.348Z,77.08
2019-03-22T00:35:11.104Z,78.05
2019-03-22T00:39:14.814Z,85.87
2019-03-22T00:43:18.422Z,86.08
2019-03-22T00:47:23.057Z,81.60
2019-03-22T00:51:26.724Z,86.50
2019-03-22T00:55:30.386Z,83.27
2019-03-22T00:59:34.006Z,81.57
2019-03-22T01:03:37.560Z,82.08
2019-03-22T01:07:41.228Z,83.62
2019-03-22T01:11:44.842Z,84.07
2019-03-22T01:15:48.459Z,87.17
2019-03-22T01:19:52.071Z,84.52
2019-03-22T01:23:55.863Z,84.30
2019-03-22T01:27:59.505Z,88.12
2019-03-22T01:32:03.043Z,85.50
2019-03-22T01:36:06.732Z,82.65
2019-03-22T01:40:12.092Z,89.32
2019-03-22T01:44:15.702Z,87.88
2019-03-22T01:48:19.452Z,80.90
2019-03-22T01:52:23.136Z,85.53
2019-03-22T01:56:26.770Z,87.37
2019-03-22T02:00:30.767Z,82.07
2019-03-22T02:04:34.358Z,84.40
2019-03-22T02:08:38.203Z,77.00
2019-03-22T02:12:41.923Z,82.85
2019-03-22T02:16:45.636Z,84.58
2019-03-22T02:20:49.177Z,84.22
2019-03-22T02:24:52.892Z,85.87
2019-03-22T02:28:56.481Z,84.40
2019-03-22T02:33:00.091Z,87.05
2019-03-22T02:37:04.932Z,89.15
2019-03-22T02:41:08.587Z,80.30
2019-03-22T02:45:14.327Z,82.97
2019-03-22T02:49:17.924Z,80.62
2019-03-22T02:53:21.650Z,90.22
2019-03-22T02:57:25.471Z,87.55
2019-03-22T03:01:29.281Z,88.80
2019-03-22T03:05:33.002Z,87.57
2019-03-22T03:09:36.610Z,78.97
2019-03-22T03:13:40.511Z,79.48
2019-03-22T03:17:44.066Z,84.05
2019-03-22T03:21:47.770Z,88.47
2019-03-22T03:25:51.372Z,86.97
2019-03-22T03:29:55.343Z,84.72
2019-03-22T03:33:58.918Z,83.87
2019-03-22T03:38:02.629Z,87.27
2019-03-22T03:42:06.446Z,88.17
2019-03-22T03:46:10.164Z,81.95
2019-03-22T03:50:13.880Z,83.75
2019-03-22T03:54:17.430Z,78.45
2019-03-22T03:58:21.107Z,82.25
2019-03-22T04:02:25.172Z,80.05
2019-03-22T04:06:28.740Z,88.27
2019-03-22T04:10:32.738Z,89.75
2019-03-22T04:14:36.380Z,84.25
2019-03-22T04:18:40.005Z,82.80
2019-03-22T04:22:43.766Z,86.45
2019-03-22T04:26:47.396Z,93.85
2019-03-22T04:30:51.038Z,90.65
2019-03-22T04:34:54.652Z,92.22
2019-03-22T04:38:58.263Z,87.53
2019-03-22T04:43:01.885Z,93.42
2019-03-22T04:47:07.673Z,94.25
2019-03-22T04:51:12.177Z,90.62
2019-03-22T04:55:16.683Z,94.25
2019-03-22T04:59:21.423Z,93.22
2019-03-22T05:03:29.494Z,98.10
2019-03-22T05:07:33.581Z,93.20
2019-03-22T05:11:38.310Z,94.20
2019-03-22T05:15:43.182Z,95.85
2019-03-22T05:19:49.874Z,99.83
2019-03-22T05:23:56.738Z,104.12
2019-03-22T05:28:02.614Z,99.62
2019-03-22T05:32:08.038Z,93.72
2019-03-22T05:36:11.588Z,98.62
2019-03-22T05:40:16.231Z,96.96
2019-03-22T05:44:19.841Z,95.22
2019-03-22T05:48:24.073Z,111.00
2019-03-22T05:52:27.785Z,97.93
2019-03-22T05:56:31.623Z,98.90
2019-03-22T06:00:35.527Z,102.92
2019-03-22T06:04:39.151Z,91.95
2019-03-22T06:08:42.861Z,99.52
2019-03-22T06:12:46.469Z,92.85
2019-03-22T06:16:50.190Z,100.10
2019-03-22T06:20:53.801Z,95.90
2019-03-22T06:24:57.588Z,93.60
2019-03-22T06:29:01.243Z,102.40
2019-03-22T06:33:04.965Z,115.37
2019-03-22T06:37:08.676Z,100.40
2019-03-22T06:41:12.314Z,110.28
2019-03-22T06:45:15.897Z,104.85
2019-03-22T06:49:19.614Z,105.80
2019-03-22T06:53:23.227Z,100.33
2019-03-22T06:57:26.838Z,101.72
2019-03-22T07:01:30.672Z,96.47
2019-03-22T07:05:35.300Z,91.32
2019-03-22T07:09:38.857Z,100.47
2019-03-22T07:13:42.624Z,95.65
2019-03-22T07:17:46.239Z,93.07
2019-03-22T07:21:49.854Z,93.82
2019-03-22T07:25:53.469Z,98.60
2019-03-22T07:29:57.393Z,101.07
2019-03-22T07:34:01.005Z,105.45
2019-03-22T07:38:04.703Z,97.88
2019-03-22T07:42:08.333Z,89.30
2019-03-22T07:46:11.948Z,91.30
2019-03-22T07:50:15.663Z,95.60
2019-03-22T07:54:19.490Z,88.42
2019-03-22T07:58:23.537Z,90.15
2019-03-22T08:02:27.228Z,94.47
2019-03-22T08:06:30.946Z,88.75
2019-03-22T08:10:34.666Z,86.87
2019-03-22T08:14:38.422Z,77.82
2019-03-22T08:18:42.298Z,96.47
2019-03-22T08:22:46.011Z,91.65
2019-03-22T08:26:49.623Z,100.00
2019-03-22T08:30:53.243Z,84.70
2019-03-22T08:34:59.627Z,86.53
2019-03-22T08:39:03.648Z,91.08
2019-03-22T08:43:07.258Z,97.88
2019-03-22T08:47:10.970Z,96.08
2019-03-22T08:51:14.587Z,104.75
2019-03-22T08:55:18.428Z,108.50
2019-03-22T08:59:22.117Z,99.72
2019-03-22T09:03:25.879Z,96.30
2019-03-22T09:07:29.490Z,104.38
2019-03-22T09:11:33.068Z,108.32
2019-03-22T09:15:41.039Z,105.55
2019-03-22T09:19:46.175Z,101.78
2019-03-22T09:23:51.964Z,98.05
2019-03-22T09:27:59.210Z,100.58
2019-03-22T09:32:02.907Z,96.63
2019-03-22T09:36:06.546Z,101.02
2019-03-22T09:40:10.530Z,95.62
2019-03-22T09:44:18.719Z,95.85
2019-03-22T09:48:23.366Z,100.87
2019-03-22T09:52:33.788Z,109.50
2019-03-22T09:56:47.208Z,106.53
2019-03-22T10:00:50.809Z,112.52
2019-03-22T10:04:54.459Z,115.62
2019-03-22T10:08:58.084Z,117.72
2019-03-22T10:13:01.824Z,104.87
2019-03-22T10:17:05.500Z,105.05
2019-03-22T10:21:21.524Z,104.58
2019-03-22T10:25:14.866Z,108.22
2019-03-22T10:29:18.443Z,93.20
2019-03-22T10:33:23.305Z,97.20
2019-03-22T10:37:27.101Z,100.75
2019-03-22T10:41:31.811Z,97.22
2019-03-22T10:45:35.564Z,94.67
2019-03-22T10:49:41.812Z,99.60
2019-03-22T10:53:44.540Z,92.80
2019-03-22T10:57:48.213Z,110.88
2019-03-22T11:02:02.598Z,98.97
2019-03-22T11:05:57.165Z,100.87
2019-03-22T11:10:00.828Z,102.50
2019-03-22T11:14:04.596Z,104.35
2019-03-22T11:18:08.318Z,114.15
2019-03-22T11:22:11.935Z,110.30
2019-03-22T11:26:15.543Z,112.03
2019-03-22T11:30:19.581Z,105.45
2019-03-22T11:34:23.284Z,112.35
2019-03-22T11:38:26.999Z,128.65
2019-03-22T11:42:30.615Z,121.10
2019-03-22T11:46:34.433Z,113.05
2019-03-22T11:50:38.007Z,122.28
2019-03-22T11:54:41.664Z,128.38
2019-03-22T11:58:45.377Z,123.95
2019-03-22T12:02:49.196Z,124.60
2019-03-22T12:06:52.812Z,127.82
2019-03-22T12:10:56.424Z,127.70
2019-03-22T12:15:00.075Z,127.97
2019-03-22T12:19:03.654Z,114.12
2019-03-22T12:23:07.578Z,119.70
2019-03-22T12:27:11.192Z,117.10
2019-03-22T12:31:14.847Z,105.72
2019-03-22T12:35:18.930Z,118.97
2019-03-22T12:39:22.647Z,111.40
2019-03-22T12:43:26.258Z,125.75
2019-03-22T12:47:30.519Z,124.70
2019-03-22T12:51:42.826Z,123.30
2019-03-22T12:55:54.112Z,120.85
2019-03-22T13:00:02.763Z,107.92
2019-03-22T13:04:07.696Z,113.40
2019-03-22T13:08:11.414Z,123.45
2019-03-22T13:12:16.139Z,107.97
2019-03-22T13:16:19.711Z,116.42
2019-03-22T13:20:23.572Z,102.35
2019-03-22T13:24:27.186Z,109.97
2019-03-22T13:28:30.839Z,113.40
2019-03-22T13:32:34.627Z,103.00
2019-03-22T13:36:38.237Z,102.65
2019-03-22T13:40:41.855Z,104.47
2019-03-22T13:44:45.461Z,108.30
2019-03-22T13:48:49.081Z,95.70
2019-03-22T13:52:52.689Z,102.15
2019-03-22T13:56:56.305Z,88.78
2019-03-22T14:01:00.230Z,94.17
2019-03-22T14:05:05.171Z,96.92
2019-03-22T14:09:09.910Z,98.15
2019-03-22T14:13:13.490Z,101.10
2019-03-22T14:17:17.163Z,98.07
2019-03-22T14:21:20.855Z,94.72
2019-03-22T14:25:24.577Z,92.50
2019-03-22T14:29:28.190Z,92.67
2019-03-22T14:33:31.900Z,87.47
2019-03-22T14:37:35.619Z,91.42
2019-03-22T14:41:39.251Z,102.02
2019-03-22T14:45:42.949Z,92.33
2019-03-22T14:49:46.682Z,93.80
2019-03-22T14:53:50.280Z,80.42
2019-03-22T14:57:53.940Z,88.37
2019-03-22T15:02:17.143Z,79.20
2019-03-22T15:06:21.498Z,95.17
2019-03-22T15:10:25.232Z,86.60
2019-03-22T15:14:39.377Z,93.60
2019-03-22T15:18:50.169Z,90.38
2019-03-22T15:22:58.178Z,94.90
2019-03-22T15:27:09.367Z,82.25
2019-03-22T15:31:23.848Z,84.10
2019-03-22T15:35:45.812Z,90.47
2019-03-22T15:39:53.908Z,87.22
2019-03-22T15:43:57.570Z,92.53
2019-03-22T15:48:01.343Z,85.28
2019-03-22T15:52:05.117Z,88.12
2019-03-22T15:56:08.671Z,96.30
2019-03-22T16:00:17.483Z,94.22
2019-03-22T16:04:21.128Z,94.94
2019-03-22T16:08:24.753Z,94.20
2019-03-22T16:12:28.347Z,95.20
2019-03-22T16:16:32.063Z,103.12
2019-03-22T16:20:35.678Z,92.00
2019-03-22T16:24:39.499Z,94.15
2019-03-22T16:28:43.122Z,97.90
2019-03-22T16:32:46.831Z,101.95
2019-03-22T16:36:50.399Z,103.70
2019-03-22T16:40:54.059Z,104.17
2019-03-22T16:44:57.670Z,99.85
2019-03-22T16:49:01.284Z,95.83
2019-03-22T16:53:05.631Z,103.27
2019-03-22T16:57:09.230Z,108.47
2019-03-22T17:01:12.952Z,104.40
2019-03-22T17:05:16.667Z,111.72
2019-03-22T17:09:20.483Z,102.40
2019-03-22T17:13:24.051Z,95.47
2019-03-22T17:17:40.198Z,106.95
2019-03-22T17:21:44.330Z,106.63
2019-03-22T17:25:47.943Z,109.40
2019-03-22T17:29:52.172Z,109.07
2019-03-22T17:33:55.732Z,106.75
2019-03-22T17:37:59.506Z,123.67
2019-03-22T17:42:03.324Z,121.25
2019-03-22T17:50:17.782Z,126.02
2019-03-22T17:54:21.338Z,128.07
2019-03-22T18:12:25.212Z,122.95
2019-03-22T18:16:28.780Z,133.90
2019-03-22T18:20:32.432Z,133.37
2019-03-22T18:24:36.998Z,119.77
2019-03-22T18:28:40.769Z,133.20
2019-03-22T18:32:45.130Z,142.57
2019-03-22T18:36:48.905Z,136.28
2019-03-22T18:40:52.579Z,141.07
2019-03-22T18:44:56.498Z,134.07
2019-03-22T18:49:00.462Z,136.62
2019-03-22T18:53:03.986Z,148.32
2019-03-22T18:57:08.076Z,154.47
2019-03-22T19:01:11.892Z,141.97
2019-03-22T19:05:16.673Z,151.87
2019-03-22T19:09:20.451Z,144.30
2019-03-22T19:13:30.671Z,153.90
2019-03-22T19:17:29.479Z,153.85
2019-03-22T19:21:33.184Z,154.82
2019-03-22T19:25:37.122Z,157.97
2019-03-22T19:29:40.904Z,158.65
2019-03-22T19:33:44.592Z,153.10
2019-03-22T19:37:48.368Z,161.22
2019-03-22T19:41:52.058Z,161.52
2019-03-22T19:45:55.710Z,163.12
2019-03-22T19:49:59.366Z,158.47
2019-03-22T19:54:03.153Z,173.93
2019-03-22T19:58:07.026Z,164.20
2019-03-22T20:02:10.875Z,155.12
2019-03-22T20:06:14.781Z,165.15
2019-03-22T20:10:18.972Z,159.72
2019-03-22T20:14:23.038Z,175.45
2019-03-22T20:18:26.644Z,184.65
2019-03-22T20:22:30.127Z,175.97
2019-03-22T20:26:33.704Z,166.82
2019-03-22T20:30:37.331Z,164.45
2019-03-22T20:34:40.856Z,165.20
2019-03-22T20:38:44.391Z,169.70
2019-03-22T20:42:48.065Z,174.12
2019-03-22T20:46:51.579Z,164.47
2019-03-22T20:50:55.182Z,167.20
2019-03-22T20:54:58.859Z,172.15
2019-03-22T20:59:02.441Z,175.40
2019-03-22T21:03:06.313Z,169.70
2019-03-22T21:12:03.892Z,171.98
2019-03-22T21:16:12.400Z,182.93
2019-03-22T21:20:50.985Z,182.30
2019-03-22T21:24:54.597Z,189.90
2019-03-22T21:28:58.094Z,194.30
2019-03-22T21:33:01.602Z,178.65
2019-03-22T21:37:06.089Z,172.40
2019-03-22T21:41:09.613Z,177.00
2019-03-22T21:45:13.466Z,182.27
2019-03-22T21:49:17.014Z,184.00
2019-03-22T21:53:20.509Z,180.37
2019-03-22T21:57:24.977Z,182.65
2019-03-22T22:01:28.493Z,178.18
2019-03-22T22:05:32.017Z,186.73
2019-03-22T22:09:35.529Z,190.28
2019-03-22T22:13:39.023Z,189.87
2019-03-22T22:17:42.932Z,185.22
2019-03-22T22:21:46.447Z,198.60
2019-03-22T22:25:51.534Z,204.45
2019-03-22T22:34:58.926Z,186.60
2019-03-22T22:39:02.404Z,199.25
2019-03-22T22:43:05.936Z,198.17
2019-03-22T22:47:09.458Z,196.87
2019-03-22T22:51:12.978Z,184.80
2019-03-22T22:55:16.488Z,196.43
2019-03-22T22:59:19.982Z,194.37
2019-03-22T23:03:23.533Z,181.52
2019-03-22T23:07:27.104Z,190.07
2019-03-22T23:11:30.567Z,199.15
2019-03-22T23:15:34.090Z,183.25
2019-03-22T23:19:37.575Z,193.45
2019-03-22T23:23:41.088Z,197.28
2019-03-22T23:27:44.657Z,203.02
2019-03-22T23:31:49.268Z,207.50
2019-03-22T23:35:53.001Z,199.95
2019-03-22T23:39:56.501Z,198.87
2019-03-22T23:44:02.158Z,198.23
2019-03-22T23:48:05.686Z,193.20
2019-03-22T23:52:09.233Z,198.93
2019-03-22T23:56:13.663Z,207.40
